EWG7E EDDN-EDDL
Flight info
| Callsign | EWG7E |
|---|---|
| Flight time | 0h 49m |
| Altitude | 25000 |
| Route | SULUS1G SULUS L604 MASEK Z52 ARPEG Z850 ADEMI T854 DOMUX DOMUX1A |
| Aircraft | A320/M-SDE3FGHIRWY/LB1 |
Departure
| Time | 2026-05-06 19:59 |
|---|---|
| Airport | Nuremberg Airport (EDDN) |
Arrival
| Time | 2026-05-06 20:48 |
|---|---|
| Airport | Düsseldorf Airport (EDDL) |
| Time | Latitude | Longitude | Altitude | Speed | Heading |
|---|---|---|---|---|---|
| 2026-05-06 19:30 | 49.49520 | 11.07725 | 1033 ft | 0 kts | 188° |
| 2026-05-06 19:46 | 49.49533 | 11.07728 | 1033 ft | 2 kts | 188° |
| 2026-05-06 19:46 | 49.49547 | 11.07731 | 1034 ft | 2 kts | 188° |
| 2026-05-06 19:47 | 49.49561 | 11.07734 | 1036 ft | 2 kts | 172° |
| 2026-05-06 19:47 | 49.49576 | 11.07727 | 1037 ft | 2 kts | 140° |
| 2026-05-06 19:47 | 49.49586 | 11.07709 | 1037 ft | 2 kts | 106° |
| 2026-05-06 19:47 | 49.49590 | 11.07689 | 1037 ft | 2 kts | 97° |
| 2026-05-06 19:48 | 49.49591 | 11.07686 | 1037 ft | 0 kts | 93° |
| 2026-05-06 19:50 | 49.49590 | 11.07686 | 1037 ft | 0 kts | 93° |
| 2026-05-06 19:51 | 49.49588 | 11.07745 | 1037 ft | 10 kts | 96° |
| 2026-05-06 19:51 | 49.49579 | 11.07877 | 1038 ft | 12 kts | 96° |
| 2026-05-06 19:51 | 49.49563 | 11.08005 | 1038 ft | 13 kts | 99° |
| 2026-05-06 19:51 | 49.49549 | 11.08154 | 1038 ft | 15 kts | 99° |
| 2026-05-06 19:52 | 49.49536 | 11.08292 | 1040 ft | 7 kts | 95° |
| 2026-05-06 19:52 | 49.49555 | 11.08352 | 1042 ft | 8 kts | 38° |
| 2026-05-06 19:52 | 49.49590 | 11.08365 | 1043 ft | 6 kts | 17° |
| 2026-05-06 19:52 | 49.49614 | 11.08442 | 1043 ft | 12 kts | 95° |
| 2026-05-06 19:53 | 49.49598 | 11.08619 | 1046 ft | 21 kts | 100° |
| 2026-05-06 19:53 | 49.49572 | 11.08880 | 1049 ft | 29 kts | 99° |
| 2026-05-06 19:53 | 49.49542 | 11.09192 | 1050 ft | 26 kts | 98° |
| 2026-05-06 19:53 | 49.49533 | 11.09345 | 1054 ft | 7 kts | 78° |
| 2026-05-06 19:54 | 49.49566 | 11.09429 | 1055 ft | 9 kts | 53° |
| 2026-05-06 19:54 | 49.49592 | 11.09485 | 1056 ft | 3 kts | 54° |
| 2026-05-06 19:54 | 49.49595 | 11.09492 | 1056 ft | 0 kts | 54° |
| 2026-05-06 19:56 | 49.49597 | 11.09496 | 1056 ft | 3 kts | 53° |
| 2026-05-06 19:56 | 49.49633 | 11.09552 | 1058 ft | 10 kts | 45° |
| 2026-05-06 19:56 | 49.49677 | 11.09553 | 1059 ft | 8 kts | 333° |
| 2026-05-06 19:57 | 49.49706 | 11.09474 | 1059 ft | 9 kts | 279° |
| 2026-05-06 19:57 | 49.49708 | 11.09455 | 1058 ft | 0 kts | 279° |
| 2026-05-06 19:58 | 49.49709 | 11.09445 | 1057 ft | 7 kts | 279° |
| 2026-05-06 19:58 | 49.49752 | 11.08992 | 1051 ft | 84 kts | 279° |
| 2026-05-06 19:58 | 49.49863 | 11.07756 | 1048 ft | 145 kts | 276° |
| 2026-05-06 19:58 | 49.50055 | 11.06074 | 1443 ft | 167 kts | 279° |
| 2026-05-06 19:59 | 49.50296 | 11.04311 | 2317 ft | 166 kts | 278° |
| 2026-05-06 19:59 | 49.50444 | 11.02575 | 3117 ft | 169 kts | 276° |
| 2026-05-06 19:59 | 49.50585 | 11.00651 | 3516 ft | 194 kts | 276° |
| 2026-05-06 19:59 | 49.50745 | 10.98427 | 3919 ft | 224 kts | 276° |
| 2026-05-06 20:00 | 49.50927 | 10.95894 | 4437 ft | 250 kts | 276° |
| 2026-05-06 20:00 | 49.51501 | 10.93365 | 5373 ft | 260 kts | 306° |
| 2026-05-06 20:00 | 49.53012 | 10.91764 | 6279 ft | 275 kts | 342° |
| 2026-05-06 20:00 | 49.54928 | 10.91501 | 7291 ft | 281 kts | 0° |
| 2026-05-06 20:01 | 49.56890 | 10.91781 | 8302 ft | 285 kts | 5° |
| 2026-05-06 20:01 | 49.58865 | 10.92196 | 9360 ft | 287 kts | 7° |
| 2026-05-06 20:01 | 49.60854 | 10.92630 | 10261 ft | 293 kts | 4° |
| 2026-05-06 20:01 | 49.62924 | 10.92848 | 11004 ft | 303 kts | 359° |
| 2026-05-06 20:02 | 49.65092 | 10.92904 | 11540 ft | 322 kts | 359° |
| 2026-05-06 20:02 | 49.67393 | 10.92909 | 12095 ft | 338 kts | 358° |
| 2026-05-06 20:02 | 49.69779 | 10.92764 | 12782 ft | 347 kts | 351° |
| 2026-05-06 20:02 | 49.72142 | 10.91954 | 13625 ft | 349 kts | 339° |
| 2026-05-06 20:03 | 49.74437 | 10.90725 | 14445 ft | 350 kts | 339° |
| 2026-05-06 20:03 | 49.76747 | 10.89478 | 15237 ft | 354 kts | 338° |
| 2026-05-06 20:03 | 49.79086 | 10.88209 | 15957 ft | 359 kts | 338° |
| 2026-05-06 20:03 | 49.81455 | 10.86919 | 16679 ft | 364 kts | 338° |
| 2026-05-06 20:04 | 49.83857 | 10.85606 | 17403 ft | 368 kts | 338° |
| 2026-05-06 20:04 | 49.86281 | 10.84276 | 18150 ft | 372 kts | 338° |
| 2026-05-06 20:04 | 49.88745 | 10.82949 | 18771 ft | 377 kts | 339° |
| 2026-05-06 20:04 | 49.91249 | 10.81641 | 19379 ft | 382 kts | 339° |
| 2026-05-06 20:05 | 49.93792 | 10.80346 | 20015 ft | 386 kts | 339° |
| 2026-05-06 20:05 | 49.96357 | 10.79038 | 20654 ft | 390 kts | 339° |
| 2026-05-06 20:05 | 49.98942 | 10.77658 | 21210 ft | 396 kts | 338° |
| 2026-05-06 20:05 | 50.01553 | 10.76211 | 21792 ft | 400 kts | 338° |
| 2026-05-06 20:06 | 50.04187 | 10.74723 | 22366 ft | 404 kts | 336° |
| 2026-05-06 20:06 | 50.06711 | 10.72798 | 22934 ft | 405 kts | 326° |
| 2026-05-06 20:06 | 50.09003 | 10.70244 | 23489 ft | 406 kts | 316° |
| 2026-05-06 20:06 | 50.11018 | 10.67169 | 23957 ft | 407 kts | 310° |
| 2026-05-06 20:07 | 50.12977 | 10.63955 | 24428 ft | 411 kts | 310° |
| 2026-05-06 20:07 | 50.14952 | 10.60716 | 24732 ft | 414 kts | 310° |
| 2026-05-06 20:07 | 50.16927 | 10.57485 | 24804 ft | 404 kts | 310° |
| 2026-05-06 20:07 | 50.18829 | 10.54371 | 24808 ft | 391 kts | 309° |
| 2026-05-06 20:08 | 50.20689 | 10.51311 | 24807 ft | 387 kts | 309° |
| 2026-05-06 20:08 | 50.22530 | 10.48268 | 24811 ft | 385 kts | 309° |
| 2026-05-06 20:08 | 50.24378 | 10.45239 | 24813 ft | 385 kts | 310° |
| 2026-05-06 20:08 | 50.26242 | 10.42236 | 24806 ft | 385 kts | 310° |
| 2026-05-06 20:09 | 50.28077 | 10.39208 | 24807 ft | 382 kts | 304° |
| 2026-05-06 20:09 | 50.29498 | 10.35740 | 24805 ft | 377 kts | 296° |
| 2026-05-06 20:09 | 50.30806 | 10.32189 | 24811 ft | 377 kts | 296° |
| 2026-05-06 20:09 | 50.32113 | 10.28625 | 24814 ft | 377 kts | 296° |
| 2026-05-06 20:10 | 50.33417 | 10.25061 | 24811 ft | 377 kts | 296° |
| 2026-05-06 20:10 | 50.34717 | 10.21498 | 24813 ft | 377 kts | 296° |
| 2026-05-06 20:10 | 50.36017 | 10.17928 | 24818 ft | 377 kts | 296° |
| 2026-05-06 20:10 | 50.37310 | 10.14358 | 24812 ft | 377 kts | 296° |
| 2026-05-06 20:11 | 50.38604 | 10.10784 | 24820 ft | 377 kts | 296° |
| 2026-05-06 20:11 | 50.39896 | 10.07212 | 24827 ft | 377 kts | 296° |
| 2026-05-06 20:11 | 50.41187 | 10.03632 | 24827 ft | 377 kts | 296° |
| 2026-05-06 20:11 | 50.42476 | 10.00062 | 24815 ft | 377 kts | 296° |
| 2026-05-06 20:12 | 50.43768 | 9.96484 | 24818 ft | 377 kts | 296° |
| 2026-05-06 20:12 | 50.45057 | 9.92910 | 24820 ft | 376 kts | 296° |
| 2026-05-06 20:12 | 50.46343 | 9.89335 | 24821 ft | 376 kts | 296° |
| 2026-05-06 20:12 | 50.47629 | 9.85759 | 24823 ft | 376 kts | 296° |
| 2026-05-06 20:13 | 50.48914 | 9.82177 | 24822 ft | 376 kts | 296° |
| 2026-05-06 20:13 | 50.50196 | 9.78595 | 24824 ft | 376 kts | 296° |
| 2026-05-06 20:13 | 50.51479 | 9.75009 | 24825 ft | 376 kts | 296° |
| 2026-05-06 20:13 | 50.52761 | 9.71430 | 24830 ft | 376 kts | 296° |
| 2026-05-06 20:14 | 50.54043 | 9.67853 | 24828 ft | 376 kts | 296° |
| 2026-05-06 20:14 | 50.55324 | 9.64268 | 24828 ft | 376 kts | 296° |
| 2026-05-06 20:14 | 50.56599 | 9.60686 | 24830 ft | 375 kts | 296° |
| 2026-05-06 20:14 | 50.57870 | 9.57108 | 24833 ft | 375 kts | 296° |
| 2026-05-06 20:15 | 50.59140 | 9.53528 | 24839 ft | 375 kts | 296° |
| 2026-05-06 20:15 | 50.60408 | 9.49948 | 24851 ft | 374 kts | 296° |
| 2026-05-06 20:15 | 50.61671 | 9.46364 | 24843 ft | 374 kts | 296° |
| 2026-05-06 20:15 | 50.62929 | 9.42792 | 24846 ft | 373 kts | 296° |
| 2026-05-06 20:16 | 50.64188 | 9.39219 | 24846 ft | 373 kts | 296° |
| 2026-05-06 20:16 | 50.65445 | 9.35649 | 24851 ft | 372 kts | 296° |
| 2026-05-06 20:16 | 50.66697 | 9.32091 | 24852 ft | 372 kts | 296° |
| 2026-05-06 20:16 | 50.67950 | 9.28526 | 24854 ft | 371 kts | 296° |
| 2026-05-06 20:17 | 50.69201 | 9.24965 | 24854 ft | 371 kts | 296° |
| 2026-05-06 20:17 | 50.70449 | 9.21410 | 24857 ft | 370 kts | 296° |
| 2026-05-06 20:17 | 50.71691 | 9.17864 | 24858 ft | 370 kts | 296° |
| 2026-05-06 20:17 | 50.72935 | 9.14300 | 24857 ft | 369 kts | 296° |
| 2026-05-06 20:18 | 50.74174 | 9.10743 | 24859 ft | 369 kts | 296° |
| 2026-05-06 20:18 | 50.75408 | 9.07197 | 24859 ft | 369 kts | 296° |
| 2026-05-06 20:18 | 50.76647 | 9.03647 | 24859 ft | 369 kts | 296° |
| 2026-05-06 20:18 | 50.77866 | 9.00145 | 24861 ft | 368 kts | 296° |
| 2026-05-06 20:19 | 50.79099 | 8.96597 | 24860 ft | 368 kts | 296° |
| 2026-05-06 20:19 | 50.80328 | 8.93051 | 24863 ft | 368 kts | 296° |
| 2026-05-06 20:19 | 50.81554 | 8.89498 | 24865 ft | 368 kts | 296° |
| 2026-05-06 20:19 | 50.82774 | 8.85954 | 24865 ft | 367 kts | 296° |
| 2026-05-06 20:20 | 50.83996 | 8.82399 | 24863 ft | 367 kts | 296° |
| 2026-05-06 20:20 | 50.85218 | 8.78848 | 24866 ft | 367 kts | 296° |
| 2026-05-06 20:20 | 50.86442 | 8.75297 | 24867 ft | 367 kts | 296° |
| 2026-05-06 20:20 | 50.87664 | 8.71748 | 24866 ft | 367 kts | 296° |
| 2026-05-06 20:21 | 50.88885 | 8.68199 | 24869 ft | 367 kts | 296° |
| 2026-05-06 20:21 | 50.90107 | 8.64644 | 24869 ft | 367 kts | 296° |
| 2026-05-06 20:21 | 50.91323 | 8.61088 | 24867 ft | 367 kts | 296° |
| 2026-05-06 20:21 | 50.92537 | 8.57529 | 24868 ft | 367 kts | 296° |
| 2026-05-06 20:22 | 50.93748 | 8.53971 | 24869 ft | 367 kts | 296° |
| 2026-05-06 20:22 | 50.94959 | 8.50408 | 24869 ft | 367 kts | 296° |
| 2026-05-06 20:22 | 50.96169 | 8.46844 | 24873 ft | 367 kts | 296° |
| 2026-05-06 20:22 | 50.97380 | 8.43275 | 24873 ft | 367 kts | 296° |
| 2026-05-06 20:23 | 50.98587 | 8.39713 | 24872 ft | 367 kts | 296° |
| 2026-05-06 20:23 | 50.99797 | 8.36142 | 24877 ft | 367 kts | 296° |
| 2026-05-06 20:23 | 51.01204 | 8.32751 | 24875 ft | 369 kts | 307° |
| 2026-05-06 20:23 | 51.03015 | 8.29849 | 24874 ft | 372 kts | 319° |
| 2026-05-06 20:24 | 51.05159 | 8.27540 | 24873 ft | 374 kts | 329° |
| 2026-05-06 20:24 | 51.07428 | 8.25528 | 24873 ft | 374 kts | 329° |
| 2026-05-06 20:24 | 51.09698 | 8.23509 | 24876 ft | 374 kts | 329° |
| 2026-05-06 20:24 | 51.11971 | 8.21485 | 24876 ft | 374 kts | 329° |
| 2026-05-06 20:25 | 51.14242 | 8.19459 | 24878 ft | 374 kts | 329° |
| 2026-05-06 20:25 | 51.16502 | 8.17434 | 24695 ft | 371 kts | 329° |
| 2026-05-06 20:25 | 51.18741 | 8.15423 | 24453 ft | 367 kts | 329° |
| 2026-05-06 20:25 | 51.20948 | 8.13444 | 24054 ft | 363 kts | 329° |
| 2026-05-06 20:26 | 51.23147 | 8.11477 | 23581 ft | 361 kts | 329° |
| 2026-05-06 20:26 | 51.25336 | 8.09514 | 23041 ft | 360 kts | 329° |
| 2026-05-06 20:26 | 51.27509 | 8.07566 | 22559 ft | 357 kts | 329° |
| 2026-05-06 20:26 | 51.29668 | 8.05636 | 22092 ft | 354 kts | 329° |
| 2026-05-06 20:27 | 51.31811 | 8.03716 | 21632 ft | 352 kts | 329° |
| 2026-05-06 20:27 | 51.33941 | 8.01803 | 21163 ft | 350 kts | 329° |
| 2026-05-06 20:27 | 51.36055 | 7.99896 | 20715 ft | 348 kts | 329° |
| 2026-05-06 20:27 | 51.38154 | 7.97998 | 20275 ft | 346 kts | 329° |
| 2026-05-06 20:28 | 51.40242 | 7.96110 | 19828 ft | 344 kts | 329° |
| 2026-05-06 20:28 | 51.42320 | 7.94234 | 19367 ft | 342 kts | 329° |
| 2026-05-06 20:28 | 51.44331 | 7.92214 | 18881 ft | 340 kts | 319° |
| 2026-05-06 20:28 | 51.45889 | 7.89400 | 18402 ft | 338 kts | 301° |
| 2026-05-06 20:29 | 51.46791 | 7.85954 | 17896 ft | 336 kts | 282° |
| 2026-05-06 20:29 | 51.46963 | 7.82251 | 17464 ft | 334 kts | 265° |
| 2026-05-06 20:29 | 51.46464 | 7.78632 | 17016 ft | 332 kts | 255° |
| 2026-05-06 20:29 | 51.46043 | 7.76284 | 16713 ft | 331 kts | 255° |
| 2026-05-06 20:30 | 51.45409 | 7.72745 | 16237 ft | 330 kts | 255° |
| 2026-05-06 20:30 | 51.44146 | 7.65697 | 15389 ft | 328 kts | 255° |
| 2026-05-06 20:30 | 51.43522 | 7.62236 | 14969 ft | 327 kts | 255° |
| 2026-05-06 20:31 | 51.42883 | 7.58701 | 14540 ft | 326 kts | 255° |
| 2026-05-06 20:31 | 51.42253 | 7.55245 | 14309 ft | 320 kts | 256° |
| 2026-05-06 20:31 | 51.41636 | 7.51830 | 13920 ft | 319 kts | 256° |
| 2026-05-06 20:31 | 51.41040 | 7.48408 | 13518 ft | 318 kts | 257° |
| 2026-05-06 20:32 | 51.40266 | 7.43843 | 12945 ft | 315 kts | 257° |
| 2026-05-06 20:32 | 51.39890 | 7.41612 | 12661 ft | 311 kts | 257° |
| 2026-05-06 20:32 | 51.39330 | 7.38288 | 12238 ft | 307 kts | 257° |
| 2026-05-06 20:32 | 51.38772 | 7.34994 | 11826 ft | 305 kts | 257° |
| 2026-05-06 20:33 | 51.38214 | 7.31726 | 11427 ft | 303 kts | 257° |
| 2026-05-06 20:33 | 51.37654 | 7.28478 | 11024 ft | 302 kts | 257° |
| 2026-05-06 20:33 | 51.37092 | 7.25243 | 10649 ft | 301 kts | 257° |
| 2026-05-06 20:33 | 51.36532 | 7.22023 | 10283 ft | 300 kts | 257° |
| 2026-05-06 20:34 | 51.36076 | 7.19406 | 9986 ft | 295 kts | 257° |
| 2026-05-06 20:34 | 51.35527 | 7.16262 | 9609 ft | 292 kts | 256° |
| 2026-05-06 20:34 | 51.34983 | 7.13149 | 9211 ft | 289 kts | 257° |
| 2026-05-06 20:34 | 51.34443 | 7.10058 | 8803 ft | 288 kts | 257° |
| 2026-05-06 20:35 | 51.33906 | 7.06984 | 8443 ft | 286 kts | 257° |
| 2026-05-06 20:35 | 51.33370 | 7.03925 | 8085 ft | 285 kts | 257° |
| 2026-05-06 20:35 | 51.32834 | 7.00873 | 7717 ft | 284 kts | 257° |
| 2026-05-06 20:35 | 51.32301 | 6.97840 | 7374 ft | 283 kts | 257° |
| 2026-05-06 20:36 | 51.31769 | 6.94822 | 7024 ft | 282 kts | 256° |
| 2026-05-06 20:36 | 51.31237 | 6.91815 | 6668 ft | 281 kts | 257° |
| 2026-05-06 20:36 | 51.30707 | 6.88821 | 6326 ft | 280 kts | 257° |
| 2026-05-06 20:36 | 51.30179 | 6.85852 | 5972 ft | 279 kts | 257° |
| 2026-05-06 20:37 | 51.29646 | 6.82867 | 5604 ft | 277 kts | 257° |
| 2026-05-06 20:37 | 51.29119 | 6.79906 | 5228 ft | 276 kts | 257° |
| 2026-05-06 20:37 | 51.28586 | 6.76970 | 4885 ft | 275 kts | 253° |
| 2026-05-06 20:37 | 51.27742 | 6.74220 | 4518 ft | 277 kts | 237° |
| 2026-05-06 20:38 | 51.26573 | 6.71788 | 4147 ft | 276 kts | 233° |
| 2026-05-06 20:38 | 51.25391 | 6.69389 | 3992 ft | 274 kts | 233° |
| 2026-05-06 20:38 | 51.24211 | 6.66992 | 4006 ft | 275 kts | 233° |
| 2026-05-06 20:38 | 51.23072 | 6.64680 | 4000 ft | 253 kts | 233° |
| 2026-05-06 20:39 | 51.22030 | 6.62572 | 4034 ft | 232 kts | 233° |
| 2026-05-06 20:39 | 51.21057 | 6.60600 | 3949 ft | 223 kts | 234° |
| 2026-05-06 20:39 | 51.20104 | 6.58667 | 3667 ft | 221 kts | 234° |
| 2026-05-06 20:39 | 51.19155 | 6.56738 | 3382 ft | 220 kts | 233° |
| 2026-05-06 20:40 | 51.18210 | 6.54818 | 3093 ft | 221 kts | 234° |
| 2026-05-06 20:40 | 51.17263 | 6.52891 | 2936 ft | 218 kts | 233° |
| 2026-05-06 20:40 | 51.16343 | 6.51026 | 3142 ft | 217 kts | 234° |
| 2026-05-06 20:40 | 51.15411 | 6.49139 | 3128 ft | 216 kts | 233° |
| 2026-05-06 20:41 | 51.14480 | 6.47262 | 3120 ft | 217 kts | 231° |
| 2026-05-06 20:41 | 51.13228 | 6.45965 | 3037 ft | 219 kts | 190° |
| 2026-05-06 20:41 | 51.11770 | 6.46335 | 2987 ft | 215 kts | 144° |
| 2026-05-06 20:41 | 51.10907 | 6.48136 | 2978 ft | 205 kts | 101° |
| 2026-05-06 20:42 | 51.10897 | 6.50304 | 3046 ft | 193 kts | 68° |
| 2026-05-06 20:42 | 51.11685 | 6.51926 | 3057 ft | 183 kts | 34° |
| 2026-05-06 20:42 | 51.12762 | 6.52924 | 3068 ft | 173 kts | 23° |
| 2026-05-06 20:42 | 51.13869 | 6.53650 | 3111 ft | 171 kts | 22° |
| 2026-05-06 20:43 | 51.14985 | 6.54261 | 3129 ft | 169 kts | 10° |
| 2026-05-06 20:43 | 51.16138 | 6.54630 | 3081 ft | 170 kts | 18° |
| 2026-05-06 20:43 | 51.17230 | 6.55345 | 3004 ft | 170 kts | 25° |
| 2026-05-06 20:43 | 51.18284 | 6.56206 | 3005 ft | 171 kts | 29° |
| 2026-05-06 20:44 | 51.19210 | 6.57361 | 3002 ft | 168 kts | 40° |
| 2026-05-06 20:44 | 51.20109 | 6.58537 | 2860 ft | 168 kts | 35° |
| 2026-05-06 20:44 | 51.20968 | 6.59809 | 2600 ft | 172 kts | 54° |
| 2026-05-06 20:44 | 51.21480 | 6.61531 | 2435 ft | 171 kts | 66° |
| 2026-05-06 20:45 | 51.22030 | 6.63172 | 2297 ft | 166 kts | 49° |
| 2026-05-06 20:45 | 51.22709 | 6.64670 | 2055 ft | 164 kts | 53° |
| 2026-05-06 20:45 | 51.23313 | 6.66116 | 1775 ft | 147 kts | 49° |
| 2026-05-06 20:45 | 51.23946 | 6.67244 | 1542 ft | 130 kts | 44° |
| 2026-05-06 20:46 | 51.24537 | 6.68357 | 1288 ft | 134 kts | 48° |
| 2026-05-06 20:46 | 51.25138 | 6.69503 | 1063 ft | 133 kts | 46° |
| 2026-05-06 20:46 | 51.25729 | 6.70589 | 931 ft | 126 kts | 47° |
| 2026-05-06 20:46 | 51.26265 | 6.71685 | 805 ft | 125 kts | 51° |
| 2026-05-06 20:47 | 51.26797 | 6.72802 | 634 ft | 125 kts | 49° |
| 2026-05-06 20:47 | 51.27324 | 6.73888 | 421 ft | 123 kts | 49° |
| 2026-05-06 20:47 | 51.27839 | 6.74952 | 262 ft | 121 kts | 50° |
| 2026-05-06 20:47 | 51.28356 | 6.76031 | 156 ft | 120 kts | 50° |
| 2026-05-06 20:48 | 51.28815 | 6.76984 | 134 ft | 91 kts | 52° |
| 2026-05-06 20:48 | 51.29077 | 6.77528 | 133 ft | 34 kts | 52° |
| 2026-05-06 20:48 | 51.29211 | 6.77822 | 137 ft | 32 kts | 53° |
| 2026-05-06 20:48 | 51.29297 | 6.78022 | 140 ft | 13 kts | 75° |
| 2026-05-06 20:49 | 51.29278 | 6.78153 | 139 ft | 10 kts | 122° |
| 2026-05-06 20:49 | 51.29221 | 6.78211 | 138 ft | 10 kts | 173° |
| 2026-05-06 20:49 | 51.29156 | 6.78172 | 137 ft | 10 kts | 226° |
| 2026-05-06 20:49 | 51.29108 | 6.78077 | 137 ft | 14 kts | 231° |
| 2026-05-06 20:50 | 51.29049 | 6.77958 | 137 ft | 13 kts | 233° |
| 2026-05-06 20:50 | 51.28985 | 6.77820 | 137 ft | 20 kts | 232° |
| 2026-05-06 20:50 | 51.28900 | 6.77631 | 137 ft | 22 kts | 234° |
| 2026-05-06 20:50 | 51.28800 | 6.77427 | 137 ft | 25 kts | 232° |
| 2026-05-06 20:51 | 51.28690 | 6.77197 | 137 ft | 27 kts | 233° |
| 2026-05-06 20:51 | 51.28570 | 6.76943 | 137 ft | 26 kts | 233° |
| 2026-05-06 20:51 | 51.28471 | 6.76737 | 137 ft | 25 kts | 232° |
| 2026-05-06 20:51 | 51.28359 | 6.76504 | 137 ft | 28 kts | 233° |
| 2026-05-06 20:52 | 51.28240 | 6.76250 | 137 ft | 25 kts | 233° |
| 2026-05-06 20:52 | 51.28164 | 6.76092 | 137 ft | 12 kts | 232° |
| 2026-05-06 20:52 | 51.28105 | 6.76029 | 137 ft | 9 kts | 172° |
| 2026-05-06 20:52 | 51.28058 | 6.76092 | 137 ft | 9 kts | 122° |
| 2026-05-06 20:53 | 51.28024 | 6.76156 | 137 ft | 4 kts | 136° |
| 2026-05-06 20:53 | 51.28017 | 6.76166 | 137 ft | 0 kts | 136° |